Terminal Aerodrome Forecast
Issued by NWS

Home | Current Version | Previous Version | Text Only | Print | Product List | Glossary Off
Versions: 1 2 3 4 5 6 7 8 9 10 11 12 13 14 15 16 17 18 19 20 21 22

000
FTUS43 KABR 291726 CCA
TAFATY
TAF COR
KATY 291726Z 2918/3018 01019G27KT P6SM -RA OVC010
     FM291900 01020G27KT P6SM OVC015
     FM300000 36019G25KT P6SM OVC025
     FM300900 01010KT P6SM SKC=

USA.gov is the U.S. government's official web portal to all federal, state and local government web resources and services.